Flight Track Log - Related Links

Times and Time Zones

All times are in EDT time to prevent confusion due to time zone crossing. See the UPS1354 flight status page for this flight to view local times or setup timezone preferences in your user account.

Time Position Orientation Groundspeed Altitude Reporting Facility
EDT Latitude Longitude Course Direction KTS km/h feet Rate Location/Type
Wed 04:54:49 38.1700 -85.7290 222° Southwest  Level FlightAware ADS-B
Wed 04:57:00 37.9803 -85.7094 171° South  Level FlightAware Approximate
Wed 05:00:00 37.9401 -85.7013 171° South  Level FlightAware Approximate
Wed 05:01:00 37.8341 -85.6968 171° South  Level FlightAware Approximate
Wed 05:02:00 37.7289 -85.6791 175° South  Level FlightAware Approximate
Wed 05:03:00 37.6231 -85.6674 175° South  Level FlightAware Approximate
Wed 05:03:01 38.1740 -85.7270 175° South 125 232  Level FlightAware ADS-B
Wed 05:03:21 38.1880 -85.7320 344° North 168 311 800 2,850 Climbing FlightAware ADS-B
Wed 05:03:41 38.2030 -85.7380 343° North 170 315 1,900 2,550 Climbing FlightAware ADS-B
Wed 05:04:01 38.2180 -85.7460 337° Northwest 192 356 2,500 1,500 Climbing FlightAware ADS-B
Wed 05:04:21 38.2370 -85.7550 340° North 231 428 2,900 1,313 Climbing FlightAware ADS-B
Wed 05:04:33 38.2500 -85.7600 343° North 249 462 3,200 1,875 Climbing FlightAware ADS-B
Wed 05:04:37 38.2550 -85.7610 351° North 250 463 3,400 3,429 Climbing FlightAware ADS-B
Wed 05:05:01 38.2810 -85.7500 18° North 254 470 4,800 3,500 Climbing FlightAware ADS-B
Wed 05:05:13 38.2890 -85.7370 52° Northeast 259 480 5,500 3,545 Climbing FlightAware ADS-B
Wed 05:05:23 38.2940 -85.7220 67° East 264 489 6,100 3,333 Climbing FlightAware ADS-B
Wed 05:05:31 38.2950 -85.7100 84° East 271 502 6,500 2,727 Climbing FlightAware ADS-B
Wed 05:05:56 38.2840 -85.6740 111° Southeast 288 533 7,600 2,800 Climbing FlightAware ADS-B
Wed 05:06:01 38.2780 -85.6660 134° Southeast 292 541 7,900 2,800 Climbing FlightAware ADS-B
Wed 05:06:11 38.2690 -85.6570 142° Southeast 296 549 8,300 2,700 Climbing FlightAware ADS-B
Wed 05:06:21 38.2560 -85.6490 154° Southeast 300 555 8,800 2,700 Climbing FlightAware ADS-B
Wed 05:06:31 38.2430 -85.6450 166° South 302 560 9,200 2,167 Climbing FlightAware ADS-B
Wed 05:06:57 38.2050 -85.6580 195° South 315 583 10,100 1,935 Climbing FlightAware ADS-B
Wed 05:07:33 38.1530 -85.6810 199° South 358 663 11,200 1,667 Climbing FlightAware ADS-B
Wed 05:08:09 38.0910 -85.6970 191° South 394 729 12,100 2,167 Climbing FlightAware ADS-B
Wed 05:08:45 38.0240 -85.7140 191° South 403 747 13,800 2,647 Climbing FlightAware ADS-B
Wed 05:09:17 37.9660 -85.7280 191° South 412 763 15,100 2,545 Climbing FlightAware ADS-B
Wed 05:09:51 37.9000 -85.7450 191° South 420 777 16,600 2,500 Climbing FlightAware ADS-B
Wed 05:10:29 37.8270 -85.7630 191° South 426 789 18,100 2,432 Climbing FlightAware ADS-B
Wed 05:11:05 37.7580 -85.7790 190° South 430 797 19,600 2,333 Climbing FlightAware ADS-B
Wed 05:11:41 37.6850 -85.7970 191° South 435 806 20,900 2,032 Climbing FlightAware ADS-B
Wed 05:12:07 37.6360 -85.8090 191° South 441 816 21,700 2,029 Climbing FlightAware ADS-B
Wed 05:12:49 37.5490 -85.8300 191° South 447 827 23,200 1,823 Climbing FlightAware ADS-B
Wed 05:13:26 37.4740 -85.8490 191° South 458 848 24,100 1,545 Climbing FlightAware ADS-B
Wed 05:13:55 37.4160 -85.8630 191° South 460 851 24,900 2,108 Climbing FlightAware ADS-B
Wed 05:14:40 37.3200 -85.8860 191° South 454 840 26,700 2,211 Climbing FlightAware ADS-B
Wed 05:15:11 37.2600 -85.9000 191° South 452 837 27,700 1,733 Climbing FlightAware ADS-B
Wed 05:15:25 37.2259 -85.9086 191° South 451 835 28,000 254 Climbing FlightAware ADS-B
Wed 05:16:22 37.1017 -85.9384 191° South 486 900 28,000  Level FlightAware ADS-B
Wed 05:17:01 37.0162 -85.9591 191° South 484 896 28,000  Level FlightAware ADS-B
Wed 05:17:41 36.9289 -85.9798 191° South 478 885 28,000  Level FlightAware ADS-B
Wed 05:18:13 36.8598 -85.9966 191° South 480 888 28,000  Level FlightAware ADS-B
Wed 05:18:43 36.7931 -86.0125 191° South 482 893 28,000  Level FlightAware ADS-B
Wed 05:19:13 36.7274 -86.0281 191° South 478 885 28,000  Level FlightAware ADS-B
Wed 05:19:44 36.6608 -86.0438 191° South 474 877 28,000  Level FlightAware ADS-B
Wed 05:20:14 36.5944 -86.0598 191° South 480 888 28,000  Level FlightAware ADS-B
Wed 05:20:45 36.5277 -86.0758 191° South 484 896 28,000  Level FlightAware ADS-B
Wed 05:21:16 36.4595 -86.0922 191° South 485 898 28,000  Level FlightAware ADS-B
Wed 05:21:54 36.3762 -86.1119 191° South 482 893 28,000  Level FlightAware ADS-B
Wed 05:22:25 36.3087 -86.1278 191° South 481 892 28,000  Level FlightAware ADS-B
Wed 05:23:05 36.2195 -86.1484 191° South 481 892 28,000  Level FlightAware ADS-B
Wed 05:23:36 36.1527 -86.1642 191° South 481 892 28,000  Level FlightAware ADS-B
Wed 05:24:06 36.0861 -86.1797 191° South 479 887 28,000  Level FlightAware ADS-B
Wed 05:24:38 36.0159 -86.1960 191° South 477 884 28,000  Level FlightAware ADS-B
Wed 05:25:09 35.9494 -86.2118 191° South 476 882 28,000  Level FlightAware ADS-B
Wed 05:25:46 35.8760 -86.2290 191° South 476 882 28,000  Level FlightAware ADS-B
Wed 05:26:04 35.8308 -86.2395 191° South 476 882 28,000  Level FlightAware ADS-B
Wed 05:27:00 35.7083 -86.2677 191° South 476 882 28,000  Level FlightAware ADS-B
Wed 05:27:41 35.6201 -86.2882 191° South 474 877 28,000  Level FlightAware ADS-B
Wed 05:28:16 35.5520 -86.3040 191° South 469 869 28,000  Level FlightAware ADS-B
Wed 05:28:25 35.5258 -86.3101 191° South 471 872 28,000  Level FlightAware ADS-B
Wed 05:28:55 35.4617 -86.3248 191° South 466 863 28,000  Level FlightAware ADS-B
Wed 05:29:25 35.3980 -86.3394 191° South 466 863 28,000  Level FlightAware ADS-B
Wed 05:30:00 35.3247 -86.3564 191° South 464 859 28,000  Level FlightAware ADS-B
Wed 05:30:36 35.2496 -86.3738 191° South 462 856 28,000  Level FlightAware ADS-B
Wed 05:31:06 35.1861 -86.3884 191° South 461 855 28,000  Level FlightAware ADS-B
Wed 05:31:36 35.1228 -86.4028 191° South 460 851 28,000  Level FlightAware ADS-B
Wed 05:32:07 35.0570 -86.4176 190° South 460 851 28,000 -818 Level FlightAware ADS-B
Wed 05:32:42 34.9840 -86.4344 191° South 463 858 27,100 -1,727 Descending FlightAware ADS-B
Wed 05:33:13 34.9190 -86.4496 191° South 465 861 26,100 -1,938 Descending FlightAware ADS-B
Wed 05:33:47 34.8474 -86.4658 191° South 452 837 25,000 -2,017 Descending FlightAware ADS-B
Wed 05:35:09 34.6814 -86.5034 191° South 447 827 22,200 -1,979 Descending FlightAware ADS-B
Wed 05:40:12 34.1040 -86.6340 191° South 387 716 12,300 -1,800 Descending FlightAware ADS-B
Wed 05:40:49 34.0470 -86.6460 190° South 387 716 12,000 -247 Descending FlightAware ADS-B
Wed 05:41:25 33.9930 -86.6570 190° South 387 716 12,000  Level FlightAware ADS-B
Wed 05:42:02 33.9380 -86.6690 190° South 387 716 12,000 -1,870 Level FlightAware ADS-B
Wed 05:42:42 33.8770 -86.6880 194° South 346 641 9,600 -3,333 Descending FlightAware ADS-B
Wed 05:42:47 33.8750 -86.6900 220° Southwest 288 533 9,500 -200 Descending FlightAware ADS-B
Wed 05:43:12 33.8490 -86.7040 204° Southwest 288 533 9,500  Level FlightAware ADS-B
Wed 05:43:37 33.8230 -86.7190 206° Southwest 288 533 9,500 -3,934 Level FlightAware ADS-B
Wed 05:44:13 33.7760 -86.7480 207° Southwest 275 509 5,500 -5,520 Descending FlightAware ADS-B
Wed 05:44:52 33.7247 -86.7489 207° Southwest 278 515 2,600 -1,818 Descending Atlanta Center
Wed 05:45:52 33.6644 -86.7469 178° South 248 459 2,500 -400 Descending Atlanta Center
Wed 05:46:52 33.6206 -86.7456 178° South 200 370 1,800 -500 Descending Atlanta Center
Wed 05:47:52 33.5681 -86.7539 188° South 191 354 1,500 -300 Descending Atlanta Center

Login

Don't have an account? Register now (free) for customized features, flight alerts, and more!